sensor_id;sensor_type;location;lat;lon;timestamp;P1;durP1;ratioP1;P2;durP2;ratioP2
10882;SDS011;5494;51.796;10.952;2023-12-20T00:01:23;0.90;;;0.67;;
10882;SDS011;5494;51.796;10.952;2023-12-20T00:03:51;1.43;;;0.90;;
10882;SDS011;5494;51.796;10.952;2023-12-20T00:06:19;1.13;;;0.87;;
10882;SDS011;5494;51.796;10.952;2023-12-20T00:08:48;1.03;;;0.80;;
10882;SDS011;5494;51.796;10.952;2023-12-20T00:11:16;1.20;;;0.97;;
10882;SDS011;5494;51.796;10.952;2023-12-20T00:13:45;2.27;;;1.10;;
10882;SDS011;5494;51.796;10.952;2023-12-20T00:16:17;0.97;;;0.67;;
10882;SDS011;5494;51.796;10.952;2023-12-20T00:18:45;1.03;;;0.80;;
10882;SDS011;5494;51.796;10.952;2023-12-20T00:21:13;0.80;;;0.80;;
10882;SDS011;5494;51.796;10.952;2023-12-20T00:23:41;0.90;;;0.80;;
10882;SDS011;5494;51.796;10.952;2023-12-20T00:26:09;0.97;;;0.80;;
10882;SDS011;5494;51.796;10.952;2023-12-20T00:28:38;0.80;;;0.60;;
10882;SDS011;5494;51.796;10.952;2023-12-20T00:31:07;1.27;;;0.70;;
10882;SDS011;5494;51.796;10.952;2023-12-20T00:33:36;0.50;;;0.50;;
10882;SDS011;5494;51.796;10.952;2023-12-20T00:36:04;0.97;;;0.80;;
10882;SDS011;5494;51.796;10.952;2023-12-20T00:38:33;1.83;;;1.10;;
10882;SDS011;5494;51.796;10.952;2023-12-20T00:41:01;1.30;;;0.80;;
10882;SDS011;5494;51.796;10.952;2023-12-20T00:43:29;1.43;;;0.60;;
10882;SDS011;5494;51.796;10.952;2023-12-20T00:45:57;1.10;;;0.90;;
10882;SDS011;5494;51.796;10.952;2023-12-20T00:48:27;0.80;;;0.80;;
10882;SDS011;5494;51.796;10.952;2023-12-20T00:50:57;1.07;;;0.80;;
10882;SDS011;5494;51.796;10.952;2023-12-20T00:53:25;0.80;;;0.80;;
10882;SDS011;5494;51.796;10.952;2023-12-20T00:55:53;0.93;;;0.70;;
10882;SDS011;5494;51.796;10.952;2023-12-20T00:58:21;0.70;;;0.70;;
10882;SDS011;5494;51.796;10.952;2023-12-20T01:00:49;0.70;;;0.60;;
10882;SDS011;5494;51.796;10.952;2023-12-20T01:03:17;0.60;;;0.60;;
10882;SDS011;5494;51.796;10.952;2023-12-20T01:05:46;0.70;;;0.67;;
10882;SDS011;5494;51.796;10.952;2023-12-20T01:08:14;0.80;;;0.70;;
10882;SDS011;5494;51.796;10.952;2023-12-20T01:10:42;0.63;;;0.63;;
10882;SDS011;5494;51.796;10.952;2023-12-20T01:13:10;0.90;;;0.80;;
10882;SDS011;5494;51.796;10.952;2023-12-20T01:15:38;1.13;;;0.97;;
10882;SDS011;5494;51.796;10.952;2023-12-20T01:18:07;2.30;;;0.80;;
10882;SDS011;5494;51.796;10.952;2023-12-20T01:20:35;1.67;;;1.00;;
10882;SDS011;5494;51.796;10.952;2023-12-20T01:23:04;0.77;;;0.63;;
10882;SDS011;5494;51.796;10.952;2023-12-20T01:25:32;0.60;;;0.60;;
10882;SDS011;5494;51.796;10.952;2023-12-20T01:28:00;0.77;;;0.70;;
10882;SDS011;5494;51.796;10.952;2023-12-20T01:30:29;1.10;;;0.90;;
10882;SDS011;5494;51.796;10.952;2023-12-20T01:32:59;1.43;;;1.03;;
10882;SDS011;5494;51.796;10.952;2023-12-20T01:35:28;0.80;;;0.73;;
10882;SDS011;5494;51.796;10.952;2023-12-20T01:37:56;0.93;;;0.80;;
10882;SDS011;5494;51.796;10.952;2023-12-20T01:40:25;1.00;;;0.90;;
10882;SDS011;5494;51.796;10.952;2023-12-20T01:42:59;1.30;;;1.07;;
10882;SDS011;5494;51.796;10.952;2023-12-20T01:45:28;1.07;;;0.80;;
10882;SDS011;5494;51.796;10.952;2023-12-20T01:47:56;1.37;;;0.73;;
10882;SDS011;5494;51.796;10.952;2023-12-20T01:50:26;1.10;;;0.67;;
10882;SDS011;5494;51.796;10.952;2023-12-20T01:52:56;0.67;;;0.60;;
10882;SDS011;5494;51.796;10.952;2023-12-20T01:55:30;0.60;;;0.40;;
10882;SDS011;5494;51.796;10.952;2023-12-20T01:58:03;0.40;;;0.33;;
10882;SDS011;5494;51.796;10.952;2023-12-20T02:00:32;2.27;;;0.50;;
10882;SDS011;5494;51.796;10.952;2023-12-20T02:03:01;0.40;;;0.40;;
10882;SDS011;5494;51.796;10.952;2023-12-20T02:05:31;0.60;;;0.50;;
10882;SDS011;5494;51.796;10.952;2023-12-20T02:08:02;0.67;;;0.50;;
10882;SDS011;5494;51.796;10.952;2023-12-20T02:10:33;0.40;;;0.40;;
10882;SDS011;5494;51.796;10.952;2023-12-20T02:13:02;0.57;;;0.40;;
10882;SDS011;5494;51.796;10.952;2023-12-20T02:15:31;0.50;;;0.47;;
10882;SDS011;5494;51.796;10.952;2023-12-20T02:17:59;1.60;;;0.47;;
10882;SDS011;5494;51.796;10.952;2023-12-20T02:20:27;0.43;;;0.40;;
10882;SDS011;5494;51.796;10.952;2023-12-20T02:22:57;0.80;;;0.60;;
10882;SDS011;5494;51.796;10.952;2023-12-20T02:25:25;0.70;;;0.50;;
10882;SDS011;5494;51.796;10.952;2023-12-20T02:27:53;0.93;;;0.50;;
10882;SDS011;5494;51.796;10.952;2023-12-20T02:30:22;0.43;;;0.43;;
10882;SDS011;5494;51.796;10.952;2023-12-20T02:32:50;0.50;;;0.40;;
10882;SDS011;5494;51.796;10.952;2023-12-20T02:35:20;0.50;;;0.30;;
10882;SDS011;5494;51.796;10.952;2023-12-20T02:37:48;0.50;;;0.50;;
10882;SDS011;5494;51.796;10.952;2023-12-20T02:40:17;0.63;;;0.50;;
10882;SDS011;5494;51.796;10.952;2023-12-20T02:42:46;0.40;;;0.30;;
10882;SDS011;5494;51.796;10.952;2023-12-20T02:45:14;0.43;;;0.40;;
10882;SDS011;5494;51.796;10.952;2023-12-20T02:47:42;0.40;;;0.40;;
10882;SDS011;5494;51.796;10.952;2023-12-20T02:50:10;0.70;;;0.57;;
10882;SDS011;5494;51.796;10.952;2023-12-20T02:52:38;0.77;;;0.50;;
10882;SDS011;5494;51.796;10.952;2023-12-20T02:55:06;1.87;;;0.70;;
10882;SDS011;5494;51.796;10.952;2023-12-20T02:57:36;1.17;;;0.60;;
10882;SDS011;5494;51.796;10.952;2023-12-20T03:00:08;0.90;;;0.70;;
10882;SDS011;5494;51.796;10.952;2023-12-20T03:02:37;0.90;;;0.73;;
10882;SDS011;5494;51.796;10.952;2023-12-20T03:05:06;1.20;;;0.90;;
10882;SDS011;5494;51.796;10.952;2023-12-20T03:07:36;2.00;;;1.10;;
10882;SDS011;5494;51.796;10.952;2023-12-20T03:10:05;1.30;;;1.00;;
10882;SDS011;5494;51.796;10.952;2023-12-20T03:12:47;2.27;;;1.00;;
10882;SDS011;5494;51.796;10.952;2023-12-20T03:15:15;4.20;;;2.20;;
10882;SDS011;5494;51.796;10.952;2023-12-20T03:17:43;5.90;;;2.60;;
10882;SDS011;5494;51.796;10.952;2023-12-20T03:20:11;3.97;;;2.80;;
10882;SDS011;5494;51.796;10.952;2023-12-20T03:22:40;4.67;;;2.43;;
10882;SDS011;5494;51.796;10.952;2023-12-20T03:25:08;3.80;;;2.30;;
10882;SDS011;5494;51.796;10.952;2023-12-20T03:27:36;3.33;;;2.30;;
10882;SDS011;5494;51.796;10.952;2023-12-20T03:30:07;5.70;;;2.40;;
10882;SDS011;5494;51.796;10.952;2023-12-20T03:32:36;5.60;;;2.17;;
10882;SDS011;5494;51.796;10.952;2023-12-20T03:35:06;2.87;;;1.80;;
10882;SDS011;5494;51.796;10.952;2023-12-20T03:37:34;5.87;;;2.20;;
10882;SDS011;5494;51.796;10.952;2023-12-20T03:40:02;3.70;;;2.30;;
10882;SDS011;5494;51.796;10.952;2023-12-20T03:42:31;6.00;;;2.40;;
10882;SDS011;5494;51.796;10.952;2023-12-20T03:44:59;5.13;;;2.10;;
10882;SDS011;5494;51.796;10.952;2023-12-20T03:47:28;7.07;;;2.50;;
10882;SDS011;5494;51.796;10.952;2023-12-20T03:49:56;7.43;;;2.67;;
10882;SDS011;5494;51.796;10.952;2023-12-20T03:52:24;5.93;;;2.10;;
10882;SDS011;5494;51.796;10.952;2023-12-20T03:54:52;4.07;;;1.80;;
10882;SDS011;5494;51.796;10.952;2023-12-20T03:57:21;6.07;;;1.90;;
10882;SDS011;5494;51.796;10.952;2023-12-20T03:59:49;5.17;;;1.60;;
10882;SDS011;5494;51.796;10.952;2023-12-20T04:02:17;2.10;;;0.97;;
10882;SDS011;5494;51.796;10.952;2023-12-20T04:04:46;3.30;;;1.00;;
10882;SDS011;5494;51.796;10.952;2023-12-20T04:07:14;3.60;;;0.83;;
10882;SDS011;5494;51.796;10.952;2023-12-20T04:09:43;3.43;;;0.80;;
10882;SDS011;5494;51.796;10.952;2023-12-20T04:12:11;3.53;;;1.10;;
10882;SDS011;5494;51.796;10.952;2023-12-20T04:14:38;3.73;;;1.03;;
10882;SDS011;5494;51.796;10.952;2023-12-20T04:17:06;1.83;;;1.43;;
10882;SDS011;5494;51.796;10.952;2023-12-20T04:19:34;2.53;;;0.80;;
10882;SDS011;5494;51.796;10.952;2023-12-20T04:22:04;5.20;;;1.20;;
10882;SDS011;5494;51.796;10.952;2023-12-20T04:24:32;2.53;;;0.77;;
10882;SDS011;5494;51.796;10.952;2023-12-20T04:27:00;2.87;;;1.27;;
10882;SDS011;5494;51.796;10.952;2023-12-20T04:29:28;3.47;;;1.07;;
10882;SDS011;5494;51.796;10.952;2023-12-20T04:31:56;4.37;;;1.10;;
10882;SDS011;5494;51.796;10.952;2023-12-20T04:34:24;2.37;;;1.20;;
10882;SDS011;5494;51.796;10.952;2023-12-20T04:36:53;2.03;;;0.97;;
10882;SDS011;5494;51.796;10.952;2023-12-20T04:39:23;4.93;;;1.20;;
10882;SDS011;5494;51.796;10.952;2023-12-20T04:41:51;3.73;;;1.00;;
10882;SDS011;5494;51.796;10.952;2023-12-20T04:44:19;2.83;;;1.30;;
10882;SDS011;5494;51.796;10.952;2023-12-20T04:46:47;2.13;;;1.10;;
10882;SDS011;5494;51.796;10.952;2023-12-20T04:49:15;3.93;;;2.07;;
10882;SDS011;5494;51.796;10.952;2023-12-20T04:51:43;1.73;;;1.20;;
10882;SDS011;5494;51.796;10.952;2023-12-20T04:54:11;3.37;;;1.27;;
10882;SDS011;5494;51.796;10.952;2023-12-20T04:56:41;2.43;;;0.97;;
10882;SDS011;5494;51.796;10.952;2023-12-20T04:59:09;3.97;;;1.03;;
10882;SDS011;5494;51.796;10.952;2023-12-20T05:01:37;3.30;;;1.40;;
10882;SDS011;5494;51.796;10.952;2023-12-20T05:04:05;4.10;;;1.43;;
10882;SDS011;5494;51.796;10.952;2023-12-20T05:06:33;3.97;;;1.23;;
10882;SDS011;5494;51.796;10.952;2023-12-20T05:09:01;3.90;;;1.50;;
10882;SDS011;5494;51.796;10.952;2023-12-20T05:11:29;4.93;;;1.50;;
10882;SDS011;5494;51.796;10.952;2023-12-20T05:13:58;2.97;;;1.20;;
10882;SDS011;5494;51.796;10.952;2023-12-20T05:16:26;3.60;;;1.10;;
10882;SDS011;5494;51.796;10.952;2023-12-20T05:18:54;1.97;;;0.80;;
10882;SDS011;5494;51.796;10.952;2023-12-20T05:21:23;3.60;;;0.80;;
10882;SDS011;5494;51.796;10.952;2023-12-20T05:23:51;2.37;;;0.93;;
10882;SDS011;5494;51.796;10.952;2023-12-20T05:26:19;2.17;;;0.80;;
10882;SDS011;5494;51.796;10.952;2023-12-20T05:28:47;3.53;;;1.13;;
10882;SDS011;5494;51.796;10.952;2023-12-20T05:31:16;3.03;;;1.17;;
10882;SDS011;5494;51.796;10.952;2023-12-20T05:33:44;5.23;;;1.43;;
10882;SDS011;5494;51.796;10.952;2023-12-20T05:36:13;2.97;;;0.73;;
10882;SDS011;5494;51.796;10.952;2023-12-20T05:38:41;6.10;;;1.20;;
10882;SDS011;5494;51.796;10.952;2023-12-20T05:41:10;2.27;;;0.90;;
10882;SDS011;5494;51.796;10.952;2023-12-20T05:43:37;2.87;;;1.10;;
10882;SDS011;5494;51.796;10.952;2023-12-20T05:46:05;2.23;;;0.83;;
10882;SDS011;5494;51.796;10.952;2023-12-20T05:48:35;3.87;;;1.13;;
10882;SDS011;5494;51.796;10.952;2023-12-20T05:51:03;3.07;;;1.13;;
10882;SDS011;5494;51.796;10.952;2023-12-20T05:53:31;2.10;;;0.70;;
10882;SDS011;5494;51.796;10.952;2023-12-20T05:55:59;2.60;;;0.80;;
10882;SDS011;5494;51.796;10.952;2023-12-20T05:58:27;3.40;;;1.03;;
10882;SDS011;5494;51.796;10.952;2023-12-20T06:00:56;2.50;;;1.07;;
10882;SDS011;5494;51.796;10.952;2023-12-20T06:03:24;1.20;;;0.80;;
10882;SDS011;5494;51.796;10.952;2023-12-20T06:05:53;2.90;;;1.30;;
10882;SDS011;5494;51.796;10.952;2023-12-20T06:08:36;3.63;;;1.10;;
10882;SDS011;5494;51.796;10.952;2023-12-20T06:11:04;4.60;;;0.97;;
10882;SDS011;5494;51.796;10.952;2023-12-20T06:13:33;2.37;;;0.83;;
10882;SDS011;5494;51.796;10.952;2023-12-20T06:16:04;3.30;;;1.20;;
10882;SDS011;5494;51.796;10.952;2023-12-20T06:18:34;2.33;;;1.07;;
10882;SDS011;5494;51.796;10.952;2023-12-20T06:21:04;3.93;;;1.10;;
10882;SDS011;5494;51.796;10.952;2023-12-20T06:23:34;3.97;;;1.20;;
10882;SDS011;5494;51.796;10.952;2023-12-20T06:26:02;5.17;;;1.27;;
10882;SDS011;5494;51.796;10.952;2023-12-20T06:28:30;4.07;;;1.20;;
10882;SDS011;5494;51.796;10.952;2023-12-20T06:30:58;7.47;;;1.40;;
10882;SDS011;5494;51.796;10.952;2023-12-20T06:33:27;3.40;;;1.20;;
10882;SDS011;5494;51.796;10.952;2023-12-20T06:35:57;3.90;;;1.50;;
10882;SDS011;5494;51.796;10.952;2023-12-20T06:38:26;4.40;;;1.13;;
10882;SDS011;5494;51.796;10.952;2023-12-20T06:40:54;2.20;;;1.23;;
10882;SDS011;5494;51.796;10.952;2023-12-20T06:43:24;5.90;;;1.27;;
10882;SDS011;5494;51.796;10.952;2023-12-20T06:46:11;2.70;;;1.30;;
10882;SDS011;5494;51.796;10.952;2023-12-20T06:48:39;3.03;;;1.20;;
10882;SDS011;5494;51.796;10.952;2023-12-20T06:51:10;2.60;;;1.60;;
10882;SDS011;5494;51.796;10.952;2023-12-20T06:53:44;3.77;;;1.53;;
10882;SDS011;5494;51.796;10.952;2023-12-20T06:56:12;5.43;;;1.83;;
10882;SDS011;5494;51.796;10.952;2023-12-20T06:58:44;2.87;;;1.10;;
10882;SDS011;5494;51.796;10.952;2023-12-20T07:01:12;3.93;;;1.50;;
10882;SDS011;5494;51.796;10.952;2023-12-20T07:03:41;4.43;;;1.30;;
10882;SDS011;5494;51.796;10.952;2023-12-20T07:06:09;3.50;;;1.20;;
10882;SDS011;5494;51.796;10.952;2023-12-20T07:08:37;3.03;;;1.30;;
10882;SDS011;5494;51.796;10.952;2023-12-20T07:11:08;4.50;;;1.13;;
10882;SDS011;5494;51.796;10.952;2023-12-20T07:13:36;3.17;;;1.20;;
10882;SDS011;5494;51.796;10.952;2023-12-20T07:16:05;4.80;;;1.47;;
10882;SDS011;5494;51.796;10.952;2023-12-20T07:18:33;3.90;;;1.10;;
10882;SDS011;5494;51.796;10.952;2023-12-20T07:21:01;4.13;;;1.63;;
10882;SDS011;5494;51.796;10.952;2023-12-20T07:23:30;3.93;;;1.37;;
10882;SDS011;5494;51.796;10.952;2023-12-20T07:25:58;5.97;;;1.50;;
10882;SDS011;5494;51.796;10.952;2023-12-20T07:28:28;3.57;;;1.80;;
10882;SDS011;5494;51.796;10.952;2023-12-20T07:30:57;6.37;;;1.77;;
10882;SDS011;5494;51.796;10.952;2023-12-20T07:33:25;5.07;;;1.37;;
10882;SDS011;5494;51.796;10.952;2023-12-20T07:35:54;6.80;;;2.57;;
10882;SDS011;5494;51.796;10.952;2023-12-20T07:38:22;5.53;;;1.83;;
10882;SDS011;5494;51.796;10.952;2023-12-20T07:40:51;6.13;;;2.10;;
10882;SDS011;5494;51.796;10.952;2023-12-20T07:43:19;2.63;;;1.40;;
10882;SDS011;5494;51.796;10.952;2023-12-20T07:45:49;5.33;;;2.03;;
10882;SDS011;5494;51.796;10.952;2023-12-20T07:48:17;5.17;;;2.23;;
10882;SDS011;5494;51.796;10.952;2023-12-20T07:50:45;5.83;;;2.37;;
10882;SDS011;5494;51.796;10.952;2023-12-20T07:53:13;9.17;;;4.10;;
10882;SDS011;5494;51.796;10.952;2023-12-20T07:55:41;4.53;;;2.30;;
10882;SDS011;5494;51.796;10.952;2023-12-20T07:58:12;5.73;;;1.60;;
10882;SDS011;5494;51.796;10.952;2023-12-20T08:00:40;3.93;;;1.53;;
10882;SDS011;5494;51.796;10.952;2023-12-20T08:03:10;7.80;;;3.23;;
10882;SDS011;5494;51.796;10.952;2023-12-20T08:05:38;8.13;;;1.90;;
10882;SDS011;5494;51.796;10.952;2023-12-20T08:08:07;4.40;;;2.20;;
10882;SDS011;5494;51.796;10.952;2023-12-20T08:10:35;3.23;;;1.47;;
10882;SDS011;5494;51.796;10.952;2023-12-20T08:13:03;3.77;;;1.60;;
10882;SDS011;5494;51.796;10.952;2023-12-20T08:15:31;4.93;;;1.37;;
10882;SDS011;5494;51.796;10.952;2023-12-20T08:17:59;3.50;;;1.97;;
10882;SDS011;5494;51.796;10.952;2023-12-20T08:20:29;4.53;;;1.33;;
10882;SDS011;5494;51.796;10.952;2023-12-20T08:23:06;4.97;;;2.77;;
10882;SDS011;5494;51.796;10.952;2023-12-20T08:25:33;5.73;;;2.50;;
10882;SDS011;5494;51.796;10.952;2023-12-20T08:28:02;10.53;;;5.10;;
10882;SDS011;5494;51.796;10.952;2023-12-20T08:30:30;6.23;;;3.20;;
10882;SDS011;5494;51.796;10.952;2023-12-20T08:32:59;7.93;;;2.07;;
10882;SDS011;5494;51.796;10.952;2023-12-20T08:35:29;7.07;;;1.90;;
10882;SDS011;5494;51.796;10.952;2023-12-20T08:37:57;3.50;;;1.40;;
10882;SDS011;5494;51.796;10.952;2023-12-20T08:40:26;6.33;;;2.37;;
10882;SDS011;5494;51.796;10.952;2023-12-20T08:42:54;9.83;;;2.50;;
10882;SDS011;5494;51.796;10.952;2023-12-20T08:45:25;4.93;;;1.80;;
10882;SDS011;5494;51.796;10.952;2023-12-20T08:47:53;4.60;;;1.80;;
10882;SDS011;5494;51.796;10.952;2023-12-20T08:50:25;3.60;;;2.37;;
10882;SDS011;5494;51.796;10.952;2023-12-20T08:52:54;7.47;;;2.53;;
10882;SDS011;5494;51.796;10.952;2023-12-20T08:55:23;7.40;;;1.70;;
10882;SDS011;5494;51.796;10.952;2023-12-20T08:57:51;6.63;;;2.20;;
10882;SDS011;5494;51.796;10.952;2023-12-20T09:00:19;5.50;;;1.60;;
10882;SDS011;5494;51.796;10.952;2023-12-20T09:02:50;8.00;;;1.70;;
10882;SDS011;5494;51.796;10.952;2023-12-20T09:05:18;6.37;;;1.50;;
10882;SDS011;5494;51.796;10.952;2023-12-20T09:07:46;4.30;;;1.50;;
10882;SDS011;5494;51.796;10.952;2023-12-20T09:10:16;7.13;;;1.80;;
10882;SDS011;5494;51.796;10.952;2023-12-20T09:12:49;6.37;;;2.37;;
10882;SDS011;5494;51.796;10.952;2023-12-20T09:15:21;5.73;;;1.80;;
10882;SDS011;5494;51.796;10.952;2023-12-20T09:17:50;9.50;;;3.37;;
10882;SDS011;5494;51.796;10.952;2023-12-20T09:20:18;7.00;;;2.37;;
10882;SDS011;5494;51.796;10.952;2023-12-20T09:22:46;9.50;;;3.50;;
10882;SDS011;5494;51.796;10.952;2023-12-20T09:25:16;12.17;;;3.20;;
10882;SDS011;5494;51.796;10.952;2023-12-20T09:27:44;14.10;;;3.53;;
10882;SDS011;5494;51.796;10.952;2023-12-20T09:30:12;6.97;;;3.13;;
10882;SDS011;5494;51.796;10.952;2023-12-20T09:32:52;13.93;;;4.60;;
10882;SDS011;5494;51.796;10.952;2023-12-20T09:35:21;4.57;;;1.77;;
10882;SDS011;5494;51.796;10.952;2023-12-20T09:37:50;9.20;;;3.87;;
10882;SDS011;5494;51.796;10.952;2023-12-20T09:40:19;5.77;;;2.00;;
10882;SDS011;5494;51.796;10.952;2023-12-20T09:42:48;5.43;;;2.30;;
10882;SDS011;5494;51.796;10.952;2023-12-20T09:45:24;7.30;;;2.13;;
10882;SDS011;5494;51.796;10.952;2023-12-20T09:47:53;8.67;;;2.37;;
10882;SDS011;5494;51.796;10.952;2023-12-20T09:50:21;3.50;;;1.30;;
10882;SDS011;5494;51.796;10.952;2023-12-20T09:52:51;3.93;;;1.70;;
10882;SDS011;5494;51.796;10.952;2023-12-20T09:55:24;5.37;;;1.73;;
10882;SDS011;5494;51.796;10.952;2023-12-20T09:57:54;4.43;;;1.80;;
10882;SDS011;5494;51.796;10.952;2023-12-20T10:00:23;3.73;;;1.70;;
10882;SDS011;5494;51.796;10.952;2023-12-20T10:02:53;4.53;;;1.80;;
10882;SDS011;5494;51.796;10.952;2023-12-20T10:05:26;1.77;;;1.20;;
10882;SDS011;5494;51.796;10.952;2023-12-20T10:07:56;6.03;;;1.90;;
10882;SDS011;5494;51.796;10.952;2023-12-20T10:10:28;4.10;;;1.63;;
10882;SDS011;5494;51.796;10.952;2023-12-20T10:13:11;5.37;;;2.07;;
10882;SDS011;5494;51.796;10.952;2023-12-20T10:15:40;5.13;;;1.80;;
10882;SDS011;5494;51.796;10.952;2023-12-20T10:18:09;3.80;;;1.80;;
10882;SDS011;5494;51.796;10.952;2023-12-20T10:20:37;5.10;;;2.00;;
10882;SDS011;5494;51.796;10.952;2023-12-20T10:23:08;6.03;;;2.20;;
10882;SDS011;5494;51.796;10.952;2023-12-20T10:25:37;6.10;;;1.57;;
10882;SDS011;5494;51.796;10.952;2023-12-20T10:28:09;5.57;;;2.20;;
10882;SDS011;5494;51.796;10.952;2023-12-20T10:30:39;4.20;;;1.73;;
10882;SDS011;5494;51.796;10.952;2023-12-20T10:33:09;5.87;;;2.00;;
10882;SDS011;5494;51.796;10.952;2023-12-20T10:35:38;6.43;;;2.23;;
10882;SDS011;5494;51.796;10.952;2023-12-20T10:38:12;7.43;;;2.20;;
10882;SDS011;5494;51.796;10.952;2023-12-20T10:40:44;7.30;;;2.00;;
10882;SDS011;5494;51.796;10.952;2023-12-20T10:43:13;4.83;;;1.83;;
10882;SDS011;5494;51.796;10.952;2023-12-20T10:45:43;9.53;;;3.07;;
10882;SDS011;5494;51.796;10.952;2023-12-20T10:48:11;4.10;;;1.90;;
10882;SDS011;5494;51.796;10.952;2023-12-20T10:50:39;5.90;;;2.17;;
10882;SDS011;5494;51.796;10.952;2023-12-20T10:53:09;7.80;;;2.33;;
10882;SDS011;5494;51.796;10.952;2023-12-20T10:55:38;7.53;;;2.20;;
10882;SDS011;5494;51.796;10.952;2023-12-20T10:58:08;3.63;;;2.17;;
10882;SDS011;5494;51.796;10.952;2023-12-20T11:00:38;3.27;;;1.90;;
10882;SDS011;5494;51.796;10.952;2023-12-20T11:03:09;4.30;;;1.77;;
10882;SDS011;5494;51.796;10.952;2023-12-20T11:05:41;5.57;;;2.60;;
10882;SDS011;5494;51.796;10.952;2023-12-20T11:08:22;7.40;;;2.20;;
10882;SDS011;5494;51.796;10.952;2023-12-20T11:11:02;4.90;;;2.30;;
10882;SDS011;5494;51.796;10.952;2023-12-20T11:13:40;3.87;;;2.23;;
10882;SDS011;5494;51.796;10.952;2023-12-20T11:16:20;5.00;;;2.17;;
10882;SDS011;5494;51.796;10.952;2023-12-20T11:18:51;6.23;;;2.63;;
10882;SDS011;5494;51.796;10.952;2023-12-20T11:21:19;5.43;;;2.73;;
10882;SDS011;5494;51.796;10.952;2023-12-20T11:23:48;5.10;;;2.30;;
10882;SDS011;5494;51.796;10.952;2023-12-20T11:26:16;5.27;;;2.27;;
10882;SDS011;5494;51.796;10.952;2023-12-20T11:28:55;6.60;;;1.97;;
10882;SDS011;5494;51.796;10.952;2023-12-20T11:32:00;5.50;;;1.93;;
10882;SDS011;5494;51.796;10.952;2023-12-20T11:34:31;8.43;;;3.20;;
10882;SDS011;5494;51.796;10.952;2023-12-20T11:37:03;9.73;;;3.40;;
10882;SDS011;5494;51.796;10.952;2023-12-20T11:39:31;5.13;;;2.47;;
10882;SDS011;5494;51.796;10.952;2023-12-20T11:42:03;5.00;;;2.07;;
10882;SDS011;5494;51.796;10.952;2023-12-20T11:44:35;4.73;;;1.93;;
10882;SDS011;5494;51.796;10.952;2023-12-20T11:47:04;7.83;;;2.80;;
10882;SDS011;5494;51.796;10.952;2023-12-20T11:49:32;16.70;;;6.87;;
10882;SDS011;5494;51.796;10.952;2023-12-20T11:52:00;7.77;;;4.00;;
10882;SDS011;5494;51.796;10.952;2023-12-20T11:54:29;6.80;;;3.50;;
10882;SDS011;5494;51.796;10.952;2023-12-20T11:56:57;10.53;;;4.27;;
10882;SDS011;5494;51.796;10.952;2023-12-20T11:59:25;6.37;;;2.50;;
10882;SDS011;5494;51.796;10.952;2023-12-20T12:01:55;6.03;;;2.63;;
10882;SDS011;5494;51.796;10.952;2023-12-20T12:04:27;4.17;;;2.30;;
10882;SDS011;5494;51.796;10.952;2023-12-20T12:06:56;4.23;;;2.03;;
10882;SDS011;5494;51.796;10.952;2023-12-20T12:09:24;3.40;;;2.00;;
10882;SDS011;5494;51.796;10.952;2023-12-20T12:11:52;4.23;;;2.10;;
10882;SDS011;5494;51.796;10.952;2023-12-20T12:14:20;3.97;;;1.80;;
10882;SDS011;5494;51.796;10.952;2023-12-20T12:16:48;3.80;;;2.03;;
10882;SDS011;5494;51.796;10.952;2023-12-20T12:19:21;4.73;;;1.90;;
10882;SDS011;5494;51.796;10.952;2023-12-20T12:21:50;1.60;;;1.50;;
10882;SDS011;5494;51.796;10.952;2023-12-20T12:24:19;2.27;;;1.50;;
10882;SDS011;5494;51.796;10.952;2023-12-20T12:26:52;3.43;;;1.50;;
10882;SDS011;5494;51.796;10.952;2023-12-20T12:29:20;3.57;;;1.63;;
10882;SDS011;5494;51.796;10.952;2023-12-20T12:31:48;3.87;;;1.60;;
10882;SDS011;5494;51.796;10.952;2023-12-20T12:34:16;2.97;;;2.07;;
10882;SDS011;5494;51.796;10.952;2023-12-20T12:36:46;2.50;;;1.40;;
10882;SDS011;5494;51.796;10.952;2023-12-20T12:39:17;4.17;;;1.60;;
10882;SDS011;5494;51.796;10.952;2023-12-20T12:41:45;2.07;;;1.43;;
10882;SDS011;5494;51.796;10.952;2023-12-20T12:44:14;2.30;;;1.67;;
10882;SDS011;5494;51.796;10.952;2023-12-20T12:46:43;5.43;;;2.30;;
10882;SDS011;5494;51.796;10.952;2023-12-20T12:49:12;5.13;;;2.83;;
10882;SDS011;5494;51.796;10.952;2023-12-20T12:51:42;12.80;;;4.37;;
10882;SDS011;5494;51.796;10.952;2023-12-20T12:54:12;6.50;;;2.30;;
10882;SDS011;5494;51.796;10.952;2023-12-20T12:56:42;7.10;;;3.10;;
10882;SDS011;5494;51.796;10.952;2023-12-20T12:59:10;3.10;;;1.63;;
10882;SDS011;5494;51.796;10.952;2023-12-20T13:01:39;3.07;;;1.50;;
10882;SDS011;5494;51.796;10.952;2023-12-20T13:04:07;2.90;;;1.30;;
10882;SDS011;5494;51.796;10.952;2023-12-20T13:06:37;4.23;;;1.70;;
10882;SDS011;5494;51.796;10.952;2023-12-20T13:09:07;2.50;;;1.57;;
10882;SDS011;5494;51.796;10.952;2023-12-20T13:11:37;3.27;;;2.10;;
10882;SDS011;5494;51.796;10.952;2023-12-20T13:14:05;3.37;;;1.70;;
10882;SDS011;5494;51.796;10.952;2023-12-20T13:16:36;2.37;;;1.27;;
10882;SDS011;5494;51.796;10.952;2023-12-20T13:19:04;1.33;;;1.23;;
10882;SDS011;5494;51.796;10.952;2023-12-20T13:21:32;3.10;;;1.20;;
10882;SDS011;5494;51.796;10.952;2023-12-20T13:24:00;1.20;;;0.97;;
10882;SDS011;5494;51.796;10.952;2023-12-20T13:26:29;1.40;;;1.00;;
10882;SDS011;5494;51.796;10.952;2023-12-20T13:28:58;1.73;;;1.30;;
10882;SDS011;5494;51.796;10.952;2023-12-20T13:31:27;1.80;;;1.30;;
10882;SDS011;5494;51.796;10.952;2023-12-20T13:33:55;2.60;;;1.40;;
10882;SDS011;5494;51.796;10.952;2023-12-20T13:36:23;3.50;;;1.70;;
10882;SDS011;5494;51.796;10.952;2023-12-20T13:38:52;2.37;;;1.27;;
10882;SDS011;5494;51.796;10.952;2023-12-20T13:41:21;6.20;;;1.60;;
10882;SDS011;5494;51.796;10.952;2023-12-20T13:43:49;6.20;;;2.10;;
10882;SDS011;5494;51.796;10.952;2023-12-20T13:46:18;4.80;;;1.53;;
10882;SDS011;5494;51.796;10.952;2023-12-20T13:48:47;3.00;;;1.80;;
10882;SDS011;5494;51.796;10.952;2023-12-20T13:51:16;4.77;;;1.83;;
10882;SDS011;5494;51.796;10.952;2023-12-20T13:53:44;3.83;;;1.97;;
10882;SDS011;5494;51.796;10.952;2023-12-20T13:56:12;3.53;;;1.63;;
10882;SDS011;5494;51.796;10.952;2023-12-20T13:58:40;1.80;;;0.90;;
10882;SDS011;5494;51.796;10.952;2023-12-20T14:01:09;1.40;;;0.80;;
10882;SDS011;5494;51.796;10.952;2023-12-20T14:03:38;7.10;;;2.97;;
10882;SDS011;5494;51.796;10.952;2023-12-20T14:06:07;8.13;;;4.10;;
10882;SDS011;5494;51.796;10.952;2023-12-20T14:08:35;8.73;;;4.40;;
10882;SDS011;5494;51.796;10.952;2023-12-20T14:11:03;7.30;;;3.33;;
10882;SDS011;5494;51.796;10.952;2023-12-20T14:13:31;3.87;;;1.80;;
10882;SDS011;5494;51.796;10.952;2023-12-20T14:15:59;4.40;;;2.70;;
10882;SDS011;5494;51.796;10.952;2023-12-20T14:18:28;3.37;;;2.20;;
10882;SDS011;5494;51.796;10.952;2023-12-20T14:20:58;10.63;;;5.63;;
10882;SDS011;5494;51.796;10.952;2023-12-20T14:23:25;5.30;;;4.03;;
10882;SDS011;5494;51.796;10.952;2023-12-20T14:25:53;5.70;;;3.20;;
10882;SDS011;5494;51.796;10.952;2023-12-20T14:28:23;6.67;;;3.40;;
10882;SDS011;5494;51.796;10.952;2023-12-20T14:30:51;2.77;;;1.80;;
10882;SDS011;5494;51.796;10.952;2023-12-20T14:33:20;2.03;;;1.63;;
10882;SDS011;5494;51.796;10.952;2023-12-20T14:35:48;4.77;;;1.60;;
10882;SDS011;5494;51.796;10.952;2023-12-20T14:38:18;3.57;;;1.77;;
10882;SDS011;5494;51.796;10.952;2023-12-20T14:40:46;2.33;;;1.50;;
10882;SDS011;5494;51.796;10.952;2023-12-20T14:43:14;1.27;;;1.10;;
10882;SDS011;5494;51.796;10.952;2023-12-20T14:45:43;1.47;;;1.37;;
10882;SDS011;5494;51.796;10.952;2023-12-20T14:48:11;7.13;;;4.13;;
10882;SDS011;5494;51.796;10.952;2023-12-20T14:50:39;2.60;;;1.60;;
10882;SDS011;5494;51.796;10.952;2023-12-20T14:53:08;14.37;;;5.97;;
10882;SDS011;5494;51.796;10.952;2023-12-20T14:55:38;8.30;;;3.50;;
10882;SDS011;5494;51.796;10.952;2023-12-20T14:58:06;3.43;;;2.10;;
10882;SDS011;5494;51.796;10.952;2023-12-20T15:00:34;8.90;;;4.07;;